Time;durP1;ratioP1;P1;durP2;ratioP2;P2;SDS_P1;SDS_P2;PMS_P1;PMS_P2;Temp;Humidity;BMP_temperature;BMP_pressure;BME280_temperature;BME280_humidity;BME280_pressure;Samples;Min_cycle;Max_cycle;Signal;HPM_P1;HPM_P2
2022/05/27 00:00:53;;;;;;;2.28;1.30;;;;;;;23.45;37.83;101642.63;5105433;28;20466;-57
2022/05/27 00:03:20;;;;;;;3.17;1.40;;;;;;;23.44;37.77;101647.22;5100815;28;20448;-57
2022/05/27 00:06:49;;;;;;;2.20;1.30;;;;;;;23.38;38.14;101625.69;5127184;27;20403;-58
2022/05/27 00:09:16;;;;;;;2.58;1.30;;;;;;;23.32;38.10;101630.16;5128133;28;20402;-57
2022/05/27 00:11:42;;;;;;;1.55;1.17;;;;;;;23.22;38.21;101629.88;5128141;28;20410;-56
2022/05/27 00:14:09;;;;;;;4.03;1.50;;;;;;;23.20;38.34;101623.88;5127668;28;20407;-58
2022/05/27 00:16:36;;;;;;;1.92;1.25;;;;;;;23.27;38.42;101620.00;5127996;27;20415;-58
2022/05/27 00:19:03;;;;;;;2.22;1.30;;;;;;;23.27;38.01;101627.31;5120164;28;20420;-58
2022/05/27 00:21:30;;;;;;;2.60;1.30;;;;;;;23.16;38.52;101618.13;5100718;28;20794;-57
2022/05/27 00:24:00;;;;;;;4.15;1.60;;;;;;;23.10;38.55;101621.72;5107076;28;20412;-58
2022/05/27 00:28:38;;;;;;;2.80;1.20;;;;;;;23.10;38.30;101624.44;5127210;27;20399;-58
2022/05/27 00:31:06;;;;;;;2.47;1.10;;;;;;;23.08;38.69;101613.03;5127765;28;20936;-58
2022/05/27 00:33:33;;;;;;;2.00;1.35;;;;;;;23.04;38.14;101620.78;5128042;28;20411;-57
2022/05/27 00:36:00;;;;;;;1.40;1.20;;;;;;;22.99;38.32;101617.09;5127668;28;20399;-57
2022/05/27 00:38:27;;;;;;;4.85;1.75;;;;;;;23.06;38.50;101615.13;5127656;27;20900;-57
2022/05/27 00:40:54;;;;;;;4.05;1.38;;;;;;;23.01;38.40;101612.28;5127850;28;20422;-58
2022/05/27 00:44:45;;;;;;;2.03;1.38;;;;;;;22.96;38.68;101620.25;5127237;27;20452;-56
2022/05/27 00:47:16;;;;;;;2.30;1.33;;;;;;;22.90;38.60;101625.53;5127811;28;20403;-56
2022/05/27 00:49:47;;;;;;;1.33;1.17;;;;;;;22.95;38.79;101618.63;5127682;27;20411;-55
2022/05/27 00:52:16;;;;;;;2.40;1.20;;;;;;;22.88;38.98;101616.81;5127695;28;20407;-55
2022/05/27 00:54:44;;;;;;;3.75;1.30;;;;;;;22.82;38.91;101620.44;5127631;28;20421;-55
2022/05/27 00:57:15;;;;;;;3.73;1.30;;;;;;;22.74;39.10;101619.94;5127999;28;20411;-55
2022/05/27 00:59:49;;;;;;;2.20;1.23;;;;;;;22.62;39.33;101618.03;5128156;27;20508;-56
2022/05/27 01:02:16;;;;;;;2.05;1.30;;;;;;;22.78;38.78;101618.41;5127794;28;20427;-55
2022/05/27 01:04:43;;;;;;;1.67;1.10;;;;;;;22.69;39.18;101615.25;5127744;28;20459;-55
2022/05/27 01:07:10;;;;;;;1.88;1.40;;;;;;;22.74;39.04;101615.34;5127438;28;20411;-55
2022/05/27 01:09:40;;;;;;;1.63;1.30;;;;;;;22.74;39.14;101620.75;5127635;28;20411;-57
2022/05/27 01:12:25;;;;;;;4.28;1.48;;;;;;;22.62;39.14;101620.72;5127293;28;20407;-55
2022/05/27 01:15:10;;;;;;;1.98;1.15;;;;;;;22.51;39.25;101614.22;5127589;28;20411;-56
2022/05/27 01:17:51;;;;;;;2.43;1.20;;;;;;;22.49;39.67;101619.03;5124773;28;20414;-55
2022/05/27 01:20:24;;;;;;;1.75;1.30;;;;;;;22.52;39.83;101615.84;5109062;28;20412;-56
2022/05/27 01:23:23;;;;;;;2.40;1.15;;;;;;;22.59;39.47;101614.94;5105865;28;20452;-55
2022/05/27 01:26:29;;;;;;;2.10;1.50;;;;;;;22.64;39.42;101607.81;5102450;28;20422;-55
2022/05/27 01:29:14;;;;;;;3.25;1.40;;;;;;;22.53;39.26;101608.59;5106007;28;20440;-55
2022/05/27 01:34:29;;;;;;;2.30;1.20;;;;;;;22.39;39.38;101609.81;5113323;27;20756;-57
2022/05/27 01:37:05;;;;;;;2.78;1.30;;;;;;;22.31;39.48;101614.47;5089115;28;20418;-58
2022/05/27 01:39:42;;;;;;;1.20;1.10;;;;;;;22.41;39.50;101613.91;5101588;28;20520;-57
2022/05/27 01:42:15;;;;;;;2.95;1.20;;;;;;;22.40;39.21;101617.69;5097176;28;20974;-58
2022/05/27 01:44:47;;;;;;;2.77;1.43;;;;;;;22.42;39.15;101614.72;5091763;28;20472;-57
2022/05/27 01:47:18;;;;;;;2.80;1.33;;;;;;;22.47;39.26;101623.00;5087397;28;20791;-58
2022/05/27 01:49:51;;;;;;;2.22;1.40;;;;;;;22.38;39.31;101632.47;5086606;28;20509;-58
2022/05/27 01:52:24;;;;;;;2.17;1.35;;;;;;;22.40;39.22;101627.66;5086543;28;20425;-58
2022/05/27 01:54:57;;;;;;;3.25;1.60;;;;;;;22.12;39.90;101629.00;5087411;28;20429;-58
2022/05/27 01:57:30;;;;;;;3.08;1.30;;;;;;;22.17;39.63;101623.75;5074959;28;20423;-58
2022/05/27 02:00:04;;;;;;;1.70;1.20;;;;;;;22.04;40.08;101627.41;5098078;28;20418;-58
2022/05/27 02:02:33;;;;;;;3.72;1.50;;;;;;;22.07;40.02;101618.03;5092378;28;20860;-58
2022/05/27 02:05:06;;;;;;;2.60;1.48;;;;;;;22.05;39.93;101614.72;5102769;28;20419;-58
2022/05/27 02:07:38;;;;;;;1.73;1.50;;;;;;;21.97;40.10;101615.88;5092222;28;20504;-57
2022/05/27 02:10:10;;;;;;;2.75;1.33;;;;;;;21.91;40.27;101620.28;5096068;28;20422;-58
2022/05/27 02:12:41;;;;;;;3.15;1.35;;;;;;;21.80;40.71;101612.09;5100442;28;20430;-57
2022/05/27 02:15:13;;;;;;;1.55;1.20;;;;;;;21.89;40.48;101611.56;5088314;28;20954;-57
2022/05/27 02:17:45;;;;;;;1.92;1.30;;;;;;;21.94;40.26;101619.00;5092254;28;20412;-57
2022/05/27 02:20:18;;;;;;;2.40;1.15;;;;;;;21.84;40.24;101615.97;5095321;28;20418;-58
2022/05/27 02:22:49;;;;;;;1.92;1.23;;;;;;;21.88;40.54;101609.09;5101368;28;20413;-58
2022/05/27 02:25:21;;;;;;;2.22;1.30;;;;;;;21.70;40.18;101609.91;5088955;28;20410;-57
2022/05/27 02:27:54;;;;;;;1.80;1.30;;;;;;;21.92;39.77;101619.22;5098612;28;20937;-58
2022/05/27 02:30:29;;;;;;;2.10;1.20;;;;;;;21.94;39.72;101610.91;5094957;28;20914;-58
2022/05/27 02:35:45;;;;;;;3.00;1.27;;;;;;;21.78;39.93;101601.50;5077604;28;20424;-58
2022/05/27 02:38:12;;;;;;;2.25;1.15;;;;;;;21.79;39.99;101597.78;5095337;28;20911;-58
2022/05/27 02:40:51;;;;;;;2.20;1.33;;;;;;;21.76;40.10;101611.72;5099641;28;20417;-57
2022/05/27 02:43:39;;;;;;;2.53;1.20;;;;;;;21.79;40.24;101600.47;5087197;28;20441;-57
2022/05/27 02:46:19;;;;;;;2.75;1.42;;;;;;;21.87;39.85;101593.94;5062502;28;20816;-58
2022/05/27 02:48:57;;;;;;;1.88;1.30;;;;;;;21.86;40.09;101597.69;5086719;28;20415;-57
2022/05/27 02:51:32;;;;;;;1.70;1.17;;;;;;;21.84;39.96;101603.34;5087015;28;20935;-58
2022/05/27 02:54:05;;;;;;;2.90;1.30;;;;;;;21.79;40.20;101600.47;5080344;28;20429;-58
2022/05/27 02:56:35;;;;;;;2.30;1.20;;;;;;;21.74;40.28;101603.81;5078802;28;20423;-57
2022/05/27 02:59:03;;;;;;;2.83;1.42;;;;;;;21.73;40.50;101602.19;5089065;28;20429;-58
2022/05/27 03:01:31;;;;;;;3.40;1.30;;;;;;;21.71;40.63;101600.75;5078790;28;20429;-57
2022/05/27 03:03:57;;;;;;;3.67;1.40;;;;;;;21.74;40.53;101608.41;5079736;28;20419;-58
2022/05/27 03:06:47;;;;;;;1.88;1.20;;;;;;;21.57;40.86;101597.34;5090240;28;20417;-58
2022/05/27 03:09:20;;;;;;;2.08;1.40;;;;;;;21.70;40.66;101607.22;5074223;28;20828;-57
2022/05/27 03:11:57;;;;;;;2.78;1.27;;;;;;;21.66;40.88;101608.69;5079926;28;20426;-58
2022/05/27 03:14:44;;;;;;;3.13;1.25;;;;;;;21.79;40.40;101605.03;5079808;28;20811;-57
2022/05/27 03:17:26;;;;;;;3.78;1.60;;;;;;;21.77;40.58;101602.56;5073147;28;20943;-58
2022/05/27 03:20:10;;;;;;;2.92;1.80;;;;;;;21.71;40.74;101604.25;5089868;28;20421;-57
2022/05/27 03:22:49;;;;;;;2.60;1.45;;;;;;;21.76;40.88;101611.72;5078242;28;20414;-57
2022/05/27 03:25:22;;;;;;;2.75;1.55;;;;;;;21.88;40.86;101606.41;5082449;28;20419;-58
2022/05/27 03:27:56;;;;;;;2.65;1.67;;;;;;;21.78;40.84;101612.31;5089795;28;20914;-58
2022/05/27 03:30:30;;;;;;;1.80;1.27;;;;;;;21.76;40.89;101620.63;5081004;28;20421;-57
2022/05/27 03:33:04;;;;;;;3.45;2.10;;;;;;;21.82;41.17;101621.59;5082579;28;20437;-58
2022/05/27 03:35:36;;;;;;;2.57;1.50;;;;;;;21.80;41.29;101618.31;5071327;28;20421;-58
2022/05/27 03:38:10;;;;;;;3.35;1.83;;;;;;;22.04;40.89;101621.16;5071453;28;20415;-56
2022/05/27 03:40:42;;;;;;;3.40;2.50;;;;;;;22.16;40.72;101622.06;5084402;28;20413;-56
2022/05/27 03:43:10;;;;;;;3.63;1.70;;;;;;;22.40;39.91;101623.09;5071222;28;20433;-56
2022/05/27 03:45:50;;;;;;;4.80;2.33;;;;;;;22.43;40.32;101617.22;5071302;28;20419;-56
2022/05/27 03:48:17;;;;;;;5.55;3.20;;;;;;;22.26;40.60;101617.00;5070823;28;20421;-56
2022/05/27 03:50:46;;;;;;;3.42;1.88;;;;;;;22.47;40.13;101610.31;5071330;28;20425;-56
2022/05/27 03:53:15;;;;;;;4.20;2.60;;;;;;;22.60;39.96;101620.13;5070855;28;21028;-56
2022/05/27 03:55:44;;;;;;;4.60;2.40;;;;;;;22.58;39.90;101624.94;5070330;28;20410;-57
2022/05/27 03:58:13;;;;;;;3.92;1.77;;;;;;;22.71;39.93;101627.47;5070918;28;20502;-56
2022/05/27 04:00:41;;;;;;;2.72;1.60;;;;;;;22.94;39.60;101631.31;5065583;28;20451;-56
2022/05/27 04:03:09;;;;;;;4.68;2.83;;;;;;;22.98;39.18;101626.28;5050598;28;20424;-56
2022/05/27 04:05:37;;;;;;;5.53;2.15;;;;;;;23.05;39.48;101627.03;5056246;28;20410;-56
2022/05/27 04:08:04;;;;;;;3.97;2.28;;;;;;;23.22;39.09;101627.16;5066027;28;20421;-56
2022/05/27 04:10:33;;;;;;;4.25;2.20;;;;;;;23.31;38.85;101625.78;5065839;28;20403;-56
2022/05/27 04:13:00;;;;;;;4.33;1.93;;;;;;;23.55;38.20;101628.50;5066985;28;20437;-56
2022/05/27 04:15:27;;;;;;;3.20;1.70;;;;;;;23.70;37.97;101631.59;5069780;28;20417;-57
2022/05/27 04:17:53;;;;;;;4.25;2.20;;;;;;;23.76;38.01;101630.63;5069746;28;20417;-59
2022/05/27 04:20:21;;;;;;;5.97;1.98;;;;;;;23.83;37.67;101628.66;5067135;28;20928;-57
2022/05/27 04:22:48;;;;;;;4.00;1.70;;;;;;;23.93;37.63;101630.78;5070779;28;20477;-57
2022/05/27 04:25:15;;;;;;;3.60;1.90;;;;;;;24.07;36.92;101633.22;5071272;28;20937;-58
2022/05/27 04:27:44;;;;;;;3.70;1.70;;;;;;;24.15;36.96;101630.97;5071167;28;20419;-57
2022/05/27 04:30:12;;;;;;;3.60;1.92;;;;;;;24.31;36.72;101632.13;5070323;28;20425;-56
2022/05/27 04:32:39;;;;;;;3.53;1.70;;;;;;;24.42;36.65;101628.56;5073270;28;20429;-56
2022/05/27 04:35:07;;;;;;;2.08;1.52;;;;;;;24.51;36.32;101620.06;5072024;28;20431;-57
2022/05/27 04:37:35;;;;;;;4.38;1.80;;;;;;;24.66;35.97;101620.38;5055378;28;20418;-56
2022/05/27 04:40:02;;;;;;;4.40;1.93;;;;;;;24.65;36.17;101624.16;5078237;28;20428;-56
2022/05/27 04:42:29;;;;;;;4.70;2.17;;;;;;;24.75;36.31;101629.75;5079902;28;20423;-56
2022/05/27 04:44:57;;;;;;;5.72;2.20;;;;;;;24.92;36.08;101620.81;5084802;28;20409;-55
2022/05/27 04:47:24;;;;;;;4.00;2.17;;;;;;;25.15;35.54;101622.59;5074718;28;20760;-56
2022/05/27 04:49:54;;;;;;;7.15;2.25;;;;;;;25.22;35.37;101620.53;5074948;28;20433;-56
2022/05/27 04:52:24;;;;;;;5.38;2.50;;;;;;;25.36;35.26;101621.88;5073486;28;20415;-57
2022/05/27 04:54:51;;;;;;;3.40;2.20;;;;;;;25.49;34.70;101628.06;5083449;28;20429;-56
2022/05/27 04:57:21;;;;;;;9.15;2.70;;;;;;;25.71;34.56;101634.38;5073668;28;20423;-56
2022/05/27 04:59:49;;;;;;;4.65;2.58;;;;;;;25.88;34.45;101630.81;5078271;28;20419;-56
2022/05/27 05:02:20;;;;;;;4.95;2.00;;;;;;;25.93;34.35;101637.16;5077672;28;20422;-57
2022/05/27 05:04:47;;;;;;;3.88;2.00;;;;;;;26.17;33.91;101630.69;5082249;28;20401;-55
2022/05/27 05:07:15;;;;;;;3.40;1.70;;;;;;;26.06;33.93;101635.97;5080512;28;20504;-56
2022/05/27 05:09:43;;;;;;;4.57;2.05;;;;;;;26.19;34.29;101623.09;5077822;28;20411;-57
2022/05/27 05:12:12;;;;;;;5.35;2.65;;;;;;;26.30;33.88;101622.13;5077742;28;20421;-56
2022/05/27 05:14:39;;;;;;;4.35;2.65;;;;;;;26.39;33.94;101633.38;5076960;28;20430;-56
2022/05/27 05:17:06;;;;;;;4.73;2.70;;;;;;;26.48;33.78;101629.94;5070319;28;20415;-56
2022/05/27 05:19:36;;;;;;;6.07;2.60;;;;;;;26.64;33.63;101624.72;5076856;28;20417;-59
2022/05/27 05:22:03;;;;;;;6.07;2.60;;;;;;;26.67;32.86;101621.50;5080254;28;21193;-57
2022/05/27 05:24:33;;;;;;;4.63;1.95;;;;;;;26.80;33.35;101625.72;5085831;28;20807;-56
2022/05/27 05:27:00;;;;;;;4.10;1.90;;;;;;;26.87;33.00;101623.59;5075777;28;20416;-56
2022/05/27 05:29:27;;;;;;;4.72;1.83;;;;;;;26.79;33.06;101618.63;5077232;28;20415;-56
2022/05/27 05:31:54;;;;;;;6.93;2.13;;;;;;;26.83;32.96;101612.41;5084912;28;20427;-57
2022/05/27 05:34:21;;;;;;;3.50;1.70;;;;;;;26.94;32.98;101617.94;5078743;28;20836;-56
2022/05/27 05:36:49;;;;;;;4.65;2.08;;;;;;;27.18;32.23;101619.25;5070486;28;20433;-56
2022/05/27 05:39:16;;;;;;;3.35;1.70;;;;;;;27.39;32.18;101620.25;5083278;28;20903;-57
2022/05/27 05:41:43;;;;;;;3.38;2.50;;;;;;;27.65;31.63;101618.50;5073006;28;20419;-56
2022/05/27 05:44:11;;;;;;;11.93;2.50;;;;;;;27.78;31.79;101630.03;5087507;28;20420;-56
2022/05/27 05:46:40;;;;;;;48.97;5.43;;;;;;;28.16;31.17;101625.34;5079865;28;20920;-57
2022/05/27 05:49:07;;;;;;;6.80;2.95;;;;;;;28.38;30.85;101634.19;5084974;28;20452;-57
2022/05/27 05:51:34;;;;;;;2.25;1.67;;;;;;;28.35;30.49;101626.53;5081659;28;20525;-57
2022/05/27 05:54:03;;;;;;;4.20;1.77;;;;;;;28.44;30.13;101632.28;5070259;28;20437;-57
2022/05/27 05:56:33;;;;;;;5.60;2.30;;;;;;;28.69;30.51;101626.09;5069285;28;20934;-57
2022/05/27 05:59:01;;;;;;;4.88;1.90;;;;;;;29.10;29.74;101625.31;5084047;28;20427;-57
2022/05/27 06:01:28;;;;;;;4.40;2.97;;;;;;;29.48;29.29;101625.88;5079451;28;20417;-56
2022/05/27 06:03:55;;;;;;;4.18;1.70;;;;;;;29.68;28.62;101625.03;5074273;28;20421;-57
2022/05/27 06:06:23;;;;;;;3.47;1.88;;;;;;;29.78;28.78;101626.94;5085560;28;20425;-57
2022/05/27 06:08:50;;;;;;;5.85;1.90;;;;;;;30.13;28.22;101626.00;5075569;28;20939;-58
2022/05/27 06:11:18;;;;;;;2.30;1.70;;;;;;;29.99;27.96;101625.78;5074867;28;20421;-57
2022/05/27 06:13:45;;;;;;;3.10;1.85;;;;;;;30.20;27.93;101625.72;5084196;28;20807;-58
2022/05/27 06:16:12;;;;;;;2.42;1.70;;;;;;;30.57;27.30;101616.22;5064974;28;20456;-58
2022/05/27 06:18:39;;;;;;;4.45;1.60;;;;;;;30.45;27.63;101622.03;5077613;28;20462;-59
2022/05/27 06:21:06;;;;;;;4.15;1.63;;;;;;;30.79;27.30;101622.13;5087778;28;20463;-59
2022/05/27 06:23:33;;;;;;;3.60;1.70;;;;;;;31.07;26.89;101619.72;5076292;28;20421;-58
2022/05/27 06:26:03;;;;;;;3.30;1.90;;;;;;;31.33;27.05;101616.75;5086645;28;20476;-57
2022/05/27 06:36:47;;;;;;;2.33;1.40;;;;;;;31.97;25.45;101603.75;5090869;28;20465;-57
2022/05/27 06:39:14;;;;;;;2.55;1.52;;;;;;;32.03;25.61;101605.31;5086502;28;20958;-58
2022/05/27 06:41:41;;;;;;;3.75;1.50;;;;;;;31.62;25.56;101605.78;5082572;28;20409;-58
2022/05/27 06:44:10;;;;;;;2.60;1.30;;;;;;;31.64;26.22;101600.88;5088787;28;20491;-57
2022/05/27 06:46:37;;;;;;;2.35;1.33;;;;;;;31.31;25.89;101600.59;5078353;28;20421;-57
2022/05/27 06:49:06;;;;;;;4.05;1.30;;;;;;;31.04;26.49;101591.00;5076546;28;20419;-58
2022/05/27 06:51:34;;;;;;;2.78;1.50;;;;;;;30.99;26.67;101598.41;5075763;28;20419;-57
2022/05/27 06:54:01;;;;;;;1.90;1.23;;;;;;;30.91;26.72;101599.84;5087875;28;20807;-58
2022/05/27 06:56:28;;;;;;;1.40;1.10;;;;;;;30.61;26.90;101598.13;5082685;28;20419;-57
2022/05/27 06:58:55;;;;;;;3.40;1.40;;;;;;;30.39;26.72;101601.28;5084914;28;20807;-57
2022/05/27 07:01:23;;;;;;;3.10;1.43;;;;;;;30.54;27.29;101600.38;5076006;28;20512;-59
2022/05/27 07:03:50;;;;;;;3.40;1.30;;;;;;;30.06;28.13;101603.63;5073265;28;20945;-58
2022/05/27 07:06:18;;;;;;;2.55;1.40;;;;;;;29.76;27.92;101602.63;5072478;28;20415;-59
2022/05/27 07:08:44;;;;;;;2.95;1.40;;;;;;;29.82;28.37;101598.78;5072735;28;20429;-59
2022/05/27 07:11:12;;;;;;;4.63;1.70;;;;;;;29.35;29.74;101600.78;5086818;28;20500;-59
2022/05/27 07:13:39;;;;;;;3.90;1.38;;;;;;;28.86;29.96;101595.81;5074356;28;20432;-58
2022/05/27 07:16:06;;;;;;;2.63;1.35;;;;;;;29.16;28.70;101589.56;5088232;28;20428;-58
2022/05/27 07:18:35;;;;;;;2.75;1.45;;;;;;;29.31;28.76;101596.13;5081720;28;20429;-58
2022/05/27 07:21:04;;;;;;;2.95;1.45;;;;;;;28.59;29.88;101587.88;5085432;28;20406;-58
2022/05/27 07:23:31;;;;;;;3.83;1.70;;;;;;;28.92;30.51;101588.47;5074971;28;20418;-58
2022/05/27 07:25:58;;;;;;;1.55;1.08;;;;;;;28.25;28.69;101584.75;5089282;28;21370;-60
2022/05/27 07:28:25;;;;;;;4.00;1.50;;;;;;;28.05;29.90;101585.50;5082930;28;20411;-60
2022/05/27 07:30:53;;;;;;;1.80;1.00;;;;;;;28.13;29.08;101585.00;5072788;28;20790;-59
2022/05/27 07:33:21;;;;;;;2.50;1.20;;;;;;;28.00;28.98;101578.13;5074437;28;20419;-59
2022/05/27 07:35:49;;;;;;;3.92;1.02;;;;;;;27.76;28.41;101581.25;5075112;28;20852;-59
2022/05/27 07:38:17;;;;;;;2.85;1.50;;;;;;;28.44;28.30;101569.56;5084177;28;20506;-59
2022/05/27 07:40:44;;;;;;;1.88;1.00;;;;;;;28.49;27.09;101568.75;5082043;28;20413;-59
2022/05/27 07:43:11;;;;;;;3.13;1.27;;;;;;;28.33;27.36;101579.63;5083171;28;20798;-59
2022/05/27 07:45:40;;;;;;;3.47;1.23;;;;;;;28.59;26.86;101571.50;5087585;28;20811;-59
2022/05/27 07:48:09;;;;;;;2.30;1.30;;;;;;;28.26;26.97;101572.78;5085213;28;20418;-59
2022/05/27 07:50:36;;;;;;;4.55;1.77;;;;;;;28.74;28.07;101578.91;5079067;28;20413;-57
2022/05/27 07:53:04;;;;;;;1.30;0.93;;;;;;;28.76;26.21;101579.47;5078189;28;20419;-57
2022/05/27 07:55:32;;;;;;;3.85;1.05;;;;;;;28.45;26.21;101571.19;5087202;28;20494;-56
2022/05/27 07:57:59;;;;;;;1.27;0.82;;;;;;;28.18;26.08;101579.56;5075087;28;20791;-57
2022/05/27 08:00:28;;;;;;;2.80;1.10;;;;;;;28.11;25.90;101570.81;5086156;28;20799;-57
2022/05/27 08:02:56;;;;;;;1.47;1.10;;;;;;;28.33;26.24;101568.72;5083728;28;20421;-57
2022/05/27 08:05:25;;;;;;;2.33;1.30;;;;;;;28.57;26.06;101573.69;5085888;28;20425;-57
2022/05/27 08:07:54;;;;;;;1.60;1.20;;;;;;;28.35;26.64;101574.72;5073913;28;20413;-56
2022/05/27 08:10:25;;;;;;;3.10;1.30;;;;;;;28.17;27.14;101572.47;5063875;28;20804;-57
2022/05/27 08:12:52;;;;;;;2.42;1.20;;;;;;;28.41;26.38;101564.63;5078474;28;20415;-56
2022/05/27 08:15:20;;;;;;;3.47;1.70;;;;;;;28.27;26.93;101571.69;5072761;28;20437;-57
2022/05/27 08:17:47;;;;;;;2.90;1.15;;;;;;;27.99;27.76;101569.13;5072232;28;20411;-57
2022/05/27 08:20:18;;;;;;;4.95;1.40;;;;;;;28.16;27.30;101559.94;5076547;28;20417;-57
2022/05/27 08:22:45;;;;;;;2.03;1.20;;;;;;;28.14;27.09;101562.09;5080043;28;20946;-58
2022/05/27 08:25:12;;;;;;;4.00;1.30;;;;;;;27.98;27.47;101558.50;5070012;28;20425;-57
2022/05/27 08:27:41;;;;;;;2.40;1.10;;;;;;;28.07;27.00;101545.19;5083793;28;20424;-57
2022/05/27 08:30:10;;;;;;;1.52;1.10;;;;;;;28.22;27.06;101546.06;5076531;28;20402;-56
2022/05/27 08:32:37;;;;;;;1.88;1.25;;;;;;;28.37;27.22;101553.44;5070257;28;20411;-56
2022/05/27 08:38:03;;;;;;;1.20;1.02;;;;;;;28.23;26.62;101555.03;5085459;28;20408;-56
2022/05/27 08:40:43;;;;;;;1.77;1.20;;;;;;;28.52;26.74;101544.47;5074638;28;20421;-57
2022/05/27 08:43:21;;;;;;;2.65;1.40;;;;;;;28.61;27.07;101547.50;5075922;28;20518;-57
2022/05/27 08:45:57;;;;;;;2.58;1.10;;;;;;;27.91;27.17;101549.75;5070022;28;20414;-57
2022/05/27 08:48:26;;;;;;;2.58;1.10;;;;;;;28.44;26.16;101549.66;5068995;28;20410;-56
2022/05/27 08:50:58;;;;;;;2.03;0.80;;;;;;;28.75;25.50;101540.41;5070045;28;20412;-56
2022/05/27 08:53:32;;;;;;;1.35;1.02;;;;;;;28.93;26.10;101538.25;5069982;28;20411;-56
2022/05/27 09:01:41;;;;;;;3.30;0.95;;;;;;;28.01;25.72;101538.91;5069781;28;20480;-57
2022/05/27 09:04:14;;;;;;;1.83;0.93;;;;;;;28.03;25.30;101537.53;5069801;28;20415;-56
2022/05/27 09:06:45;;;;;;;2.80;0.90;;;;;;;28.52;23.16;101536.31;5069639;28;20900;-56
2022/05/27 09:09:19;;;;;;;1.23;0.80;;;;;;;28.74;22.33;101524.34;5069954;28;20423;-56
2022/05/27 09:12:09;;;;;;;3.80;1.00;;;;;;;28.96;24.03;101522.13;5069524;28;20418;-57
2022/05/27 09:14:45;;;;;;;2.73;0.80;;;;;;;29.19;23.59;101521.84;5069744;28;20433;-57
2022/05/27 09:17:17;;;;;;;2.28;1.20;;;;;;;29.41;23.64;101525.09;5069534;28;20415;-57
2022/05/27 09:19:53;;;;;;;2.47;0.90;;;;;;;29.20;23.48;101518.84;5069454;28;20788;-57
2022/05/27 09:22:33;;;;;;;1.88;0.90;;;;;;;29.19;23.76;101511.78;5069438;28;20407;-57
2022/05/27 09:25:15;;;;;;;1.55;0.88;;;;;;;29.37;23.44;101510.38;5069653;28;20411;-56
2022/05/27 09:27:51;;;;;;;1.52;1.00;;;;;;;29.42;23.48;101506.78;5069282;28;20419;-56
2022/05/27 09:30:20;;;;;;;1.45;1.00;;;;;;;29.58;23.36;101507.56;5069319;28;20407;-56
2022/05/27 09:32:51;;;;;;;2.00;0.90;;;;;;;29.10;23.57;101507.91;5069176;28;20920;-56
2022/05/27 09:35:21;;;;;;;1.42;0.88;;;;;;;29.31;23.17;101501.34;5069685;28;21525;-56
2022/05/27 09:37:52;;;;;;;2.33;0.90;;;;;;;29.05;23.21;101499.75;5069217;28;20808;-56
2022/05/27 09:40:26;;;;;;;1.40;0.82;;;;;;;29.05;23.07;101497.03;5069551;28;20501;-57
2022/05/27 09:43:00;;;;;;;1.10;0.90;;;;;;;29.11;23.38;101498.66;5069238;28;20417;-57
2022/05/27 09:45:29;;;;;;;3.37;0.80;;;;;;;28.99;23.71;101498.91;5069558;28;20411;-56
2022/05/27 09:47:59;;;;;;;0.80;0.70;;;;;;;28.68;22.10;101496.22;5069201;28;20784;-56
2022/05/27 09:50:29;;;;;;;1.98;0.70;;;;;;;28.67;21.76;101488.34;5069178;28;20422;-56
2022/05/27 09:52:58;;;;;;;1.10;0.70;;;;;;;28.60;22.19;101488.59;5069421;28;20781;-56
2022/05/27 09:55:29;;;;;;;4.25;0.95;;;;;;;28.85;22.86;101485.03;5071831;28;20892;-56
2022/05/27 09:57:59;;;;;;;1.50;0.70;;;;;;;28.70;22.35;101476.84;5073270;28;20506;-56
2022/05/27 10:00:51;;;;;;;2.40;0.63;;;;;;;28.76;20.95;101471.13;5073465;28;20415;-55
2022/05/27 10:03:28;;;;;;;3.17;0.82;;;;;;;28.51;21.86;101471.13;5062902;28;20402;-56
2022/05/27 10:05:57;;;;;;;1.45;0.90;;;;;;;28.39;22.59;101468.63;5072996;28;20820;-56
2022/05/27 10:08:31;;;;;;;2.20;1.42;;;;;;;28.63;22.23;101466.25;5081542;28;20818;-58
2022/05/27 10:11:15;;;;;;;1.30;0.77;;;;;;;28.72;22.26;101456.41;5080746;28;20498;-56
2022/05/27 10:13:42;;;;;;;2.28;0.82;;;;;;;28.70;22.29;101461.31;5074985;28;20419;-57
2022/05/27 10:16:15;;;;;;;1.60;0.60;;;;;;;28.91;22.02;101458.56;5078076;28;20434;-55
2022/05/27 10:18:44;;;;;;;2.13;0.90;;;;;;;28.85;22.63;101460.47;5072992;28;20407;-56
2022/05/27 10:21:16;;;;;;;1.95;0.60;;;;;;;28.62;22.55;101450.13;5072657;28;20407;-56
2022/05/27 10:23:45;;;;;;;2.38;1.00;;;;;;;28.56;23.34;101455.59;5072607;28;20947;-55
2022/05/27 10:26:27;;;;;;;1.42;0.80;;;;;;;28.78;22.91;101451.75;5072561;28;20425;-55
2022/05/27 10:29:00;;;;;;;0.90;0.70;;;;;;;28.72;23.16;101439.19;5082903;28;20534;-56
2022/05/27 10:31:30;;;;;;;1.10;0.70;;;;;;;28.77;22.92;101436.47;5087138;28;20425;-57
2022/05/27 10:34:00;;;;;;;1.33;1.00;;;;;;;28.75;23.53;101425.81;5074213;28;20425;-56
2022/05/27 10:36:47;;;;;;;3.10;1.10;;;;;;;29.07;23.12;101421.94;5077208;28;20491;-57
2022/05/27 10:39:22;;;;;;;0.93;0.80;;;;;;;29.14;22.62;101429.84;5079015;28;20804;-56
2022/05/27 10:42:19;;;;;;;1.10;0.90;;;;;;;29.23;21.92;101416.47;5074352;28;20415;-56
2022/05/27 10:45:00;;;;;;;1.20;0.90;;;;;;;28.97;22.80;101414.59;5083226;28;20498;-56
2022/05/27 10:47:44;;;;;;;2.17;0.80;;;;;;;29.01;22.31;101419.50;5073141;28;20792;-56
2022/05/27 10:50:19;;;;;;;1.92;1.00;;;;;;;29.04;22.70;101408.03;5061090;28;20418;-56
2022/05/27 10:53:13;;;;;;;3.20;0.77;;;;;;;28.96;22.86;101404.78;5090854;28;20420;-57
2022/05/27 10:55:55;;;;;;;1.35;0.80;;;;;;;29.06;22.40;101390.25;5074372;28;20899;-57
2022/05/27 11:04:40;;;;;;;1.65;0.90;;;;;;;28.96;22.55;101374.75;5064560;28;20430;-56
2022/05/27 11:07:20;;;;;;;2.63;0.95;;;;;;;29.25;22.00;101374.13;5063524;28;20425;-57
2022/05/27 11:10:00;;;;;;;3.20;1.00;;;;;;;29.41;21.88;101371.34;5087061;28;20421;-56
2022/05/27 11:15:37;;;;;;;3.70;1.10;;;;;;;29.39;22.10;101360.69;5077392;28;20456;-56
2022/05/27 11:18:17;;;;;;;2.42;0.90;;;;;;;29.52;21.98;101359.25;5087995;28;20423;-57
2022/05/27 11:21:10;;;;;;;1.50;0.90;;;;;;;29.65;21.84;101360.53;5079649;28;20425;-57
2022/05/27 11:24:01;;;;;;;1.48;0.73;;;;;;;29.27;22.07;101346.53;5075422;28;20511;-56
2022/05/27 11:26:35;;;;;;;1.60;1.00;;;;;;;29.24;22.01;101350.63;5063682;28;20794;-56
2022/05/27 11:29:27;;;;;;;2.28;0.90;;;;;;;29.20;21.80;101338.66;5080376;28;20419;-57
2022/05/27 11:32:02;;;;;;;1.33;0.85;;;;;;;29.30;21.60;101337.81;5080575;28;20502;-57
2022/05/27 11:34:34;;;;;;;1.60;0.80;;;;;;;29.49;22.24;101335.22;5084826;28;20456;-56
2022/05/27 11:37:32;;;;;;;2.13;1.40;;;;;;;29.71;21.86;101326.59;5072075;28;20442;-56
2022/05/27 11:40:22;;;;;;;2.50;0.95;;;;;;;29.90;22.26;101329.50;5086541;28;20421;-57
2022/05/27 11:43:16;;;;;;;2.17;0.93;;;;;;;29.65;21.82;101327.75;5066969;28;20414;-57
2022/05/27 11:45:53;;;;;;;1.40;0.80;;;;;;;29.76;21.29;101318.41;5074212;28;20451;-56
2022/05/27 11:48:29;;;;;;;2.22;1.00;;;;;;;29.64;21.25;101309.72;5065477;28;20411;-56
2022/05/27 11:51:09;;;;;;;2.50;0.95;;;;;;;29.66;22.49;101299.34;5073862;28;20492;-58
2022/05/27 11:53:55;;;;;;;2.10;0.80;;;;;;;29.38;22.08;101288.03;5083808;28;20414;-56
2022/05/27 11:56:34;;;;;;;1.38;0.80;;;;;;;29.79;22.66;101287.78;5060686;28;20435;-57
2022/05/27 11:59:04;;;;;;;1.10;0.90;;;;;;;30.01;22.20;101278.31;5078487;28;20462;-56
2022/05/27 12:01:37;;;;;;;1.10;0.80;;;;;;;30.01;21.57;101270.91;5076856;28;20441;-56
2022/05/27 12:04:12;;;;;;;1.77;0.75;;;;;;;29.90;21.14;101259.25;5082659;28;20941;-56
2022/05/27 12:06:48;;;;;;;1.20;0.70;;;;;;;29.80;21.35;101261.25;5091398;28;20420;-56
2022/05/27 12:09:23;;;;;;;0.80;0.70;;;;;;;29.90;21.49;101248.31;5078380;28;20423;-56
2022/05/27 12:11:56;;;;;;;0.65;0.65;;;;;;;29.97;21.26;101249.91;5086702;28;20428;-57
2022/05/27 12:14:30;;;;;;;1.30;0.70;;;;;;;29.99;21.88;101242.25;5075692;28;20413;-56
2022/05/27 12:17:02;;;;;;;1.55;0.80;;;;;;;29.93;22.08;101242.28;5085254;28;20429;-56
2022/05/27 12:19:34;;;;;;;2.17;0.80;;;;;;;29.77;22.19;101229.06;5078644;28;20455;-57
2022/05/27 12:22:09;;;;;;;1.30;0.75;;;;;;;29.82;22.32;101218.91;5076713;28;20806;-56